Time;durP1;ratioP1;P1;durP2;ratioP2;P2;SDS_P1;SDS_P2;PMS_P1;PMS_P2;Temp;Humidity;BMP_temperature;BMP_pressure;BME280_temperature;BME280_humidity;BME280_pressure;Samples;Min_cycle;Max_cycle;Signal;HPM_P1;HPM_P2
2022/07/15 00:02:08;;;;;;;2.72;0.90;;;;;;;13.18;87.21;102214.47;5007645;28;20038;-84
2022/07/15 00:04:34;;;;;;;5.05;1.20;;;;;;;13.22;88.00;102222.34;5002323;28;20025;-82
2022/07/15 00:07:01;;;;;;;2.60;1.10;;;;;;;13.24;88.01;102217.84;5023679;28;20554;-83
2022/07/15 00:12:13;;;;;;;4.90;1.13;;;;;;;13.30;88.20;102212.31;5020086;28;20049;-83
2022/07/15 00:14:39;;;;;;;4.90;1.13;;;;;;;13.33;87.99;102214.88;5017444;28;20124;-83
2022/07/15 00:17:06;;;;;;;4.38;1.20;;;;;;;13.36;88.59;102211.22;4987677;28;20039;-84
2022/07/15 00:19:33;;;;;;;3.38;0.88;;;;;;;13.39;89.02;102213.75;5023827;28;20037;-83
2022/07/15 00:21:58;;;;;;;2.67;1.17;;;;;;;13.40;89.07;102213.72;5017224;28;20049;-82
2022/07/15 00:24:24;;;;;;;4.40;0.93;;;;;;;13.45;89.64;102213.53;5024169;28;20050;-83
2022/07/15 00:26:49;;;;;;;4.07;1.30;;;;;;;13.49;89.72;102217.00;5000208;28;20034;-82
2022/07/15 00:29:15;;;;;;;5.50;0.93;;;;;;;13.52;89.41;102215.09;5024875;28;20582;-82
2022/07/15 00:31:41;;;;;;;2.70;0.88;;;;;;;13.53;90.13;102215.97;5023306;28;20041;-83
2022/07/15 00:34:06;;;;;;;3.72;1.30;;;;;;;13.57;90.22;102217.63;5023473;28;20098;-82
2022/07/15 00:36:31;;;;;;;5.20;0.90;;;;;;;13.60;89.73;102208.63;5024284;28;20511;-83
2022/07/15 00:38:57;;;;;;;2.47;0.90;;;;;;;13.62;90.55;102218.28;5024370;28;20043;-80
2022/07/15 00:41:23;;;;;;;3.20;0.93;;;;;;;13.65;90.84;102214.66;5023120;28;20513;-82
2022/07/15 00:43:48;;;;;;;3.90;1.10;;;;;;;13.67;90.57;102215.50;5005857;28;20124;-81
2022/07/15 00:46:21;;;;;;;2.20;0.90;;;;;;;13.68;90.96;102214.56;5022639;28;20037;-83
2022/07/15 00:48:48;;;;;;;3.53;0.88;;;;;;;13.68;90.96;102209.25;5001126;28;20040;-81
2022/07/15 00:51:13;;;;;;;3.28;1.00;;;;;;;13.67;91.32;102212.81;5022853;28;20036;-83
2022/07/15 00:53:43;;;;;;;4.13;0.93;;;;;;;13.66;91.31;102208.41;5022795;28;20148;-83
2022/07/15 00:56:09;;;;;;;2.28;0.80;;;;;;;13.63;91.00;102204.09;5025153;28;20028;-83
2022/07/15 00:58:40;;;;;;;4.20;1.13;;;;;;;13.62;91.58;102209.47;5021931;28;20098;-83
2022/07/15 01:01:07;;;;;;;2.08;0.80;;;;;;;13.60;91.56;102204.19;5016868;28;20048;-83
2022/07/15 01:03:33;;;;;;;3.35;1.13;;;;;;;13.56;90.85;102207.88;5016093;28;20396;-82
2022/07/15 01:05:59;;;;;;;1.88;0.98;;;;;;;13.51;91.36;102209.84;5024094;28;20036;-83
2022/07/15 01:08:28;;;;;;;2.15;1.00;;;;;;;13.48;91.39;102209.94;5019160;28;20044;-83
2022/07/15 01:10:54;;;;;;;3.53;1.08;;;;;;;13.43;91.61;102213.63;5022911;28;20490;-82
2022/07/15 01:13:20;;;;;;;4.00;0.98;;;;;;;13.40;91.91;102210.22;5024438;28;20047;-82
2022/07/15 01:15:48;;;;;;;3.13;0.90;;;;;;;13.37;91.56;102208.53;5021359;28;20460;-82
2022/07/15 01:18:14;;;;;;;4.55;1.08;;;;;;;13.36;91.76;102211.22;5023953;28;20107;-83
2022/07/15 01:20:41;;;;;;;2.63;0.90;;;;;;;13.32;91.85;102210.47;5021387;28;20539;-83
2022/07/15 01:23:07;;;;;;;3.25;1.00;;;;;;;13.28;91.57;102216.81;5022777;28;20029;-83
2022/07/15 01:25:35;;;;;;;7.47;1.00;;;;;;;13.24;91.43;102220.50;5023718;28;20120;-82
2022/07/15 01:28:01;;;;;;;2.97;1.00;;;;;;;13.20;91.65;102216.22;5022395;28;20040;-82
2022/07/15 01:30:28;;;;;;;2.30;0.82;;;;;;;13.18;91.83;102219.78;5021273;28;20575;-82
2022/07/15 01:32:53;;;;;;;1.17;0.77;;;;;;;13.14;91.67;102218.16;5023890;28;20090;-83
2022/07/15 01:35:19;;;;;;;3.30;1.30;;;;;;;13.14;91.63;102226.13;5022730;28;20069;-82
2022/07/15 01:37:44;;;;;;;4.57;1.00;;;;;;;13.11;91.24;102222.72;5023683;28;20033;-82
2022/07/15 01:40:11;;;;;;;1.63;1.15;;;;;;;13.07;91.09;102216.63;5022615;28;20071;-82
2022/07/15 01:42:38;;;;;;;3.70;0.80;;;;;;;13.03;91.08;102220.34;5022196;28;20153;-82
2022/07/15 01:45:05;;;;;;;3.25;1.00;;;;;;;13.00;90.92;102215.09;5023802;28;20033;-82
2022/07/15 01:47:41;;;;;;;2.90;0.70;;;;;;;12.97;91.06;102217.88;5013798;28;20025;-83
2022/07/15 01:50:08;;;;;;;1.13;1.00;;;;;;;12.94;90.75;102220.63;5024100;28;20052;-82
2022/07/15 01:52:36;;;;;;;4.10;0.93;;;;;;;12.89;90.69;102205.72;4998403;28;20036;-82
2022/07/15 01:55:02;;;;;;;3.38;0.90;;;;;;;12.86;90.46;102211.13;5017262;28;20268;-83
2022/07/15 01:57:28;;;;;;;2.20;0.77;;;;;;;12.82;90.59;102212.16;5022725;28;20052;-83
2022/07/15 01:59:54;;;;;;;3.38;0.90;;;;;;;12.79;90.60;102220.22;5022718;28;20029;-83
2022/07/15 02:02:19;;;;;;;1.02;0.60;;;;;;;12.74;90.56;102211.53;5023155;28;20393;-83
2022/07/15 02:04:45;;;;;;;5.05;0.90;;;;;;;12.71;90.23;102214.28;5023544;28;20037;-83
2022/07/15 02:07:11;;;;;;;3.40;1.00;;;;;;;12.66;90.69;102211.78;5000224;28;20064;-83
2022/07/15 02:09:36;;;;;;;2.83;0.90;;;;;;;12.61;90.69;102203.97;5023513;28;20068;-83
2022/07/15 02:12:02;;;;;;;1.88;0.95;;;;;;;12.55;90.60;102205.94;5023983;28;20033;-83
2022/07/15 02:14:27;;;;;;;7.35;1.38;;;;;;;12.52;90.77;102209.56;5015947;28;20033;-82
2022/07/15 02:16:53;;;;;;;1.75;0.70;;;;;;;12.49;90.85;102207.03;5018348;28;20391;-83
2022/07/15 02:19:19;;;;;;;3.63;0.98;;;;;;;12.45;90.44;102218.66;5019076;28;20121;-83
2022/07/15 02:21:44;;;;;;;2.67;0.80;;;;;;;12.40;90.98;102210.84;5019719;28;20055;-82
2022/07/15 02:24:10;;;;;;;3.95;0.80;;;;;;;12.34;90.92;102205.72;5003941;28;20041;-83
2022/07/15 02:26:36;;;;;;;2.30;0.63;;;;;;;12.29;91.13;102208.50;5022990;28;20052;-83
2022/07/15 02:29:01;;;;;;;2.45;0.68;;;;;;;12.26;91.16;102213.03;5021226;28;20068;-84
2022/07/15 02:31:27;;;;;;;0.88;0.60;;;;;;;12.22;91.00;102213.13;5017408;28;20594;-84
2022/07/15 02:33:52;;;;;;;1.35;0.70;;;;;;;12.19;91.13;102215.88;5021868;28;20228;-83
2022/07/15 02:36:18;;;;;;;1.73;0.77;;;;;;;12.17;91.04;102219.50;5019928;28;21340;-83
2022/07/15 02:38:44;;;;;;;1.48;0.70;;;;;;;12.14;91.15;102219.59;5021455;28;20092;-83
2022/07/15 02:41:11;;;;;;;2.50;0.70;;;;;;;12.10;91.15;102224.16;5005932;28;20056;-83
2022/07/15 02:43:37;;;;;;;3.15;0.80;;;;;;;12.06;91.38;102218.06;5023435;28;20052;-83
2022/07/15 02:46:03;;;;;;;2.67;0.80;;;;;;;12.05;91.27;102218.94;5024188;28;20041;-83
2022/07/15 02:48:28;;;;;;;1.77;0.90;;;;;;;12.03;90.91;102217.22;5020317;28;20033;-83
2022/07/15 02:50:54;;;;;;;1.23;0.77;;;;;;;12.00;91.08;102218.19;5023485;28;20048;-83
2022/07/15 02:53:21;;;;;;;3.80;0.60;;;;;;;12.00;90.98;102223.50;5003000;28;20093;-83
2022/07/15 02:55:48;;;;;;;1.05;0.60;;;;;;;11.98;90.79;102225.31;5025490;28;20065;-83
2022/07/15 02:58:14;;;;;;;3.90;0.75;;;;;;;11.96;90.96;102221.84;5024530;28;20033;-82
2022/07/15 03:00:39;;;;;;;2.22;0.70;;;;;;;11.93;90.84;102227.25;5027364;28;20037;-82
2022/07/15 03:03:05;;;;;;;6.13;0.95;;;;;;;11.89;90.51;102221.19;5024751;28;20139;-82
2022/07/15 03:05:30;;;;;;;1.27;1.00;;;;;;;11.85;90.66;102219.50;5019095;28;20076;-83
2022/07/15 03:07:56;;;;;;;1.65;1.08;;;;;;;11.82;90.34;102224.88;5005279;28;20060;-83
2022/07/15 03:10:22;;;;;;;1.10;0.80;;;;;;;11.78;90.24;102224.09;5021519;28;20143;-83
2022/07/15 03:12:47;;;;;;;0.68;0.68;;;;;;;11.74;90.47;102222.47;5024804;28;20247;-83
2022/07/15 03:15:13;;;;;;;1.20;0.60;;;;;;;11.69;90.41;102224.38;5024715;28;20499;-82
2022/07/15 03:17:41;;;;;;;2.85;0.60;;;;;;;11.65;90.21;102226.25;5024303;28;20395;-82
2022/07/15 03:20:09;;;;;;;0.60;0.50;;;;;;;11.61;90.24;102243.16;5025837;28;20543;-83
2022/07/15 03:22:34;;;;;;;1.83;0.70;;;;;;;11.58;89.94;102232.63;5023900;28;20308;-82
2022/07/15 03:25:02;;;;;;;3.33;0.95;;;;;;;11.56;89.70;102237.13;5008039;28;20049;-82
2022/07/15 03:27:28;;;;;;;0.55;0.55;;;;;;;11.53;89.78;102243.38;5003147;28;20042;-83
2022/07/15 03:29:53;;;;;;;0.85;0.70;;;;;;;11.51;89.92;102239.03;5025538;28;20052;-83
2022/07/15 03:32:20;;;;;;;1.90;0.75;;;;;;;11.49;90.16;102239.06;5024112;28;20447;-83
2022/07/15 03:34:46;;;;;;;1.85;0.98;;;;;;;11.47;89.94;102240.91;5021683;28;20401;-83
2022/07/15 03:37:12;;;;;;;0.82;0.52;;;;;;;11.48;90.01;102239.97;5024034;28;20362;-83
2022/07/15 03:39:38;;;;;;;0.95;0.75;;;;;;;11.47;89.69;102246.19;5026135;28;20053;-83
2022/07/15 03:42:03;;;;;;;1.30;0.77;;;;;;;11.44;89.62;102240.97;5023977;28;20037;-83
2022/07/15 03:44:30;;;;;;;0.90;0.75;;;;;;;11.41;89.35;102246.34;5023792;28;20579;-84
2022/07/15 03:46:56;;;;;;;0.60;0.60;;;;;;;11.40;89.47;102250.78;5019047;28;20035;-83
2022/07/15 03:49:22;;;;;;;1.70;0.90;;;;;;;11.39;89.35;102251.69;5025088;28;20033;-83
2022/07/15 03:51:47;;;;;;;1.65;0.65;;;;;;;11.39;89.68;102253.50;5026603;28;20063;-84
2022/07/15 03:54:13;;;;;;;4.25;0.80;;;;;;;11.39;89.70;102251.69;5025292;28;20072;-82
2022/07/15 03:56:39;;;;;;;0.88;0.60;;;;;;;11.39;89.40;102257.00;5023374;28;20396;-82
2022/07/15 03:59:04;;;;;;;0.80;0.50;;;;;;;11.38;89.65;102262.34;5009911;28;20083;-83
2022/07/15 04:01:30;;;;;;;1.67;0.60;;;;;;;11.38;89.85;102262.34;5024046;28;20037;-82
2022/07/15 04:03:56;;;;;;;0.50;0.50;;;;;;;11.38;89.70;102265.88;5009100;28;20479;-81
2022/07/15 04:06:21;;;;;;;0.57;0.57;;;;;;;11.38;89.27;102263.22;5009825;28;20304;-81
2022/07/15 04:08:49;;;;;;;0.50;0.50;;;;;;;11.39;89.47;102259.66;5020956;28;20071;-82
2022/07/15 04:11:15;;;;;;;0.50;0.50;;;;;;;11.40;89.39;102265.84;5025581;28;20040;-83
2022/07/15 04:13:40;;;;;;;1.80;0.60;;;;;;;11.41;89.18;102264.91;5027314;28;20037;-84
2022/07/15 04:16:07;;;;;;;1.58;0.57;;;;;;;11.45;89.13;102274.56;5027147;28;20375;-83
2022/07/15 04:18:33;;;;;;;2.05;0.65;;;;;;;11.48;89.14;102279.75;5026624;28;20048;-82
2022/07/15 04:20:59;;;;;;;0.85;0.68;;;;;;;11.53;89.07;102271.69;5025755;28;20488;-82
2022/07/15 04:23:25;;;;;;;1.45;0.60;;;;;;;11.57;89.41;102272.47;5020867;28;20415;-83
2022/07/15 04:25:52;;;;;;;0.40;0.40;;;;;;;11.58;88.93;102276.84;5008672;28;20029;-83
2022/07/15 04:28:18;;;;;;;0.55;0.55;;;;;;;11.62;88.68;102281.16;5020986;28;21299;-82
2022/07/15 04:30:44;;;;;;;0.65;0.50;;;;;;;11.66;88.50;102283.69;5004042;28;20044;-84
2022/07/15 04:33:09;;;;;;;0.75;0.50;;;;;;;11.72;88.58;102290.59;5004111;28;20721;-81
2022/07/15 04:35:35;;;;;;;0.93;0.60;;;;;;;11.76;88.56;102289.63;5037553;28;20484;-80
2022/07/15 04:38:04;;;;;;;0.50;0.50;;;;;;;11.80;88.74;102291.28;5002884;28;20143;-81
2022/07/15 04:40:32;;;;;;;0.60;0.60;;;;;;;11.85;88.30;102292.94;5025026;28;20045;-81
2022/07/15 04:42:58;;;;;;;1.27;0.50;;;;;;;11.88;88.37;102292.84;5004270;28;20129;-81
2022/07/15 04:45:24;;;;;;;2.88;0.77;;;;;;;11.92;88.21;102299.81;5003630;28;20033;-81
2022/07/15 04:47:49;;;;;;;1.17;0.75;;;;;;;11.94;88.06;102298.00;5020197;28;20029;-82
2022/07/15 04:52:59;;;;;;;3.08;0.73;;;;;;;12.01;87.85;102294.25;5025180;28;20039;-80
2022/07/15 04:55:27;;;;;;;0.50;0.50;;;;;;;12.06;87.70;102296.81;5024316;28;20048;-82
2022/07/15 04:57:53;;;;;;;0.50;0.50;;;;;;;12.15;87.98;102306.28;5018603;28;20039;-82
2022/07/15 05:00:19;;;;;;;0.50;0.45;;;;;;;12.20;87.95;102299.94;5025086;28;20040;-81
2022/07/15 05:02:44;;;;;;;1.13;0.50;;;;;;;12.27;87.71;102305.94;5001189;28;20553;-82
2022/07/15 05:05:10;;;;;;;0.82;0.63;;;;;;;12.34;87.57;102302.19;4989179;28;20041;-84
2022/07/15 05:07:36;;;;;;;2.00;0.60;;;;;;;12.41;87.32;102297.56;5025195;28;20415;-82
2022/07/15 05:10:05;;;;;;;1.20;0.50;;;;;;;12.48;87.44;102298.25;5010905;28;20047;-82
2022/07/15 05:12:31;;;;;;;0.68;0.68;;;;;;;12.54;87.09;102297.19;5027072;28;20033;-82
2022/07/15 05:14:57;;;;;;;1.55;0.65;;;;;;;12.61;87.15;102299.63;5021983;28;20464;-82
2022/07/15 05:17:22;;;;;;;0.57;0.50;;;;;;;12.67;87.23;102297.66;5023469;28;20037;-83
2022/07/15 05:19:48;;;;;;;0.50;0.50;;;;;;;12.74;87.20;102299.22;5024528;28;20041;-83
2022/07/15 05:22:13;;;;;;;0.32;0.32;;;;;;;12.82;87.08;102299.88;5021855;28;20119;-81
2022/07/15 05:24:38;;;;;;;0.50;0.50;;;;;;;12.89;86.57;102295.19;5026967;28;20487;-84
2022/07/15 05:27:07;;;;;;;0.43;0.43;;;;;;;12.96;86.67;102296.75;5002014;28;20033;-84
2022/07/15 05:29:32;;;;;;;0.40;0.40;;;;;;;13.02;86.38;102287.72;4999552;28;20209;-81
2022/07/15 05:31:58;;;;;;;0.55;0.55;;;;;;;13.08;86.49;102283.97;5022252;28;20025;-79
2022/07/15 05:34:23;;;;;;;0.73;0.50;;;;;;;13.12;86.30;102283.81;5016915;28;20060;-81
2022/07/15 05:36:49;;;;;;;0.90;0.60;;;;;;;13.16;86.46;102282.81;5025528;28;20049;-82
2022/07/15 05:39:14;;;;;;;0.80;0.50;;;;;;;13.23;85.87;102285.25;5017876;28;20029;-81
2022/07/15 05:41:40;;;;;;;2.22;0.60;;;;;;;13.28;86.13;102285.94;5024228;28;20387;-81
2022/07/15 05:44:05;;;;;;;1.13;0.50;;;;;;;13.38;85.69;102292.72;5023467;28;20045;-81
2022/07/15 05:46:31;;;;;;;0.85;0.57;;;;;;;13.53;85.60;102287.81;5024096;28;20033;-81
2022/07/15 05:48:57;;;;;;;2.67;0.68;;;;;;;13.69;85.59;102290.81;5021295;28;20028;-79
2022/07/15 05:51:22;;;;;;;0.60;0.50;;;;;;;13.82;85.12;102294.75;5021241;28;20029;-75
2022/07/15 05:53:48;;;;;;;1.50;0.60;;;;;;;13.96;85.09;102293.41;5022096;28;20160;-76
2022/07/15 05:56:13;;;;;;;1.52;0.60;;;;;;;14.09;84.98;102300.00;5023992;28;20130;-75
2022/07/15 05:58:39;;;;;;;0.63;0.50;;;;;;;14.24;85.17;102295.91;5023509;28;20392;-77
2022/07/15 06:01:05;;;;;;;1.05;0.60;;;;;;;14.45;85.31;102303.13;5023818;28;20053;-76
2022/07/15 06:03:33;;;;;;;0.50;0.50;;;;;;;14.60;84.88;102299.00;5006443;28;20042;-76
2022/07/15 06:05:59;;;;;;;1.98;0.50;;;;;;;14.79;84.32;102296.50;5023972;28;20479;-75
2022/07/15 06:08:25;;;;;;;0.40;0.40;;;;;;;15.02;83.91;102292.88;5022392;28;20051;-76
2022/07/15 06:10:50;;;;;;;2.35;0.65;;;;;;;15.22;83.43;102293.84;5035833;28;20456;-75
2022/07/15 06:13:16;;;;;;;1.10;0.50;;;;;;;15.48;83.26;102294.56;5015047;28;20068;-75
2022/07/15 06:15:44;;;;;;;0.95;0.45;;;;;;;15.79;82.20;102300.34;5022062;28;20118;-78
2022/07/15 06:18:10;;;;;;;2.83;0.50;;;;;;;16.05;81.27;102299.19;5007367;28;20104;-78
2022/07/15 06:20:36;;;;;;;0.82;0.50;;;;;;;16.30;80.77;102298.06;5019490;28;21755;-76
2022/07/15 06:23:02;;;;;;;1.02;0.43;;;;;;;16.51;79.74;102298.00;5018324;28;20510;-79
2022/07/15 06:25:27;;;;;;;0.40;0.40;;;;;;;16.62;79.14;102287.63;5009504;28;20147;-79
2022/07/15 06:27:53;;;;;;;0.38;0.38;;;;;;;16.63;77.86;102296.53;5027208;28;20041;-78
2022/07/15 06:30:19;;;;;;;0.45;0.40;;;;;;;16.62;78.13;102294.81;5027495;28;20029;-77
2022/07/15 06:32:44;;;;;;;0.30;0.30;;;;;;;16.65;78.38;102292.84;5028901;28;20029;-77
2022/07/15 06:35:11;;;;;;;1.17;0.60;;;;;;;16.65;77.59;102289.28;5028053;28;20041;-75
2022/07/15 06:37:37;;;;;;;0.45;0.30;;;;;;;16.65;77.60;102294.63;5026857;28;20388;-78
2022/07/15 06:40:03;;;;;;;0.65;0.50;;;;;;;16.80;78.03;102293.91;5029294;28;20037;-77
2022/07/15 06:42:28;;;;;;;0.52;0.40;;;;;;;17.02;78.26;102300.91;5028823;28;20043;-76
2022/07/15 06:44:54;;;;;;;1.20;0.40;;;;;;;17.19;77.13;102294.72;5010591;28;20017;-77
2022/07/15 06:47:20;;;;;;;0.38;0.38;;;;;;;17.36;76.88;102299.19;5028621;28;20041;-79
2022/07/15 06:49:46;;;;;;;0.35;0.35;;;;;;;17.53;76.24;102299.28;5038888;28;20563;-80
2022/07/15 06:52:12;;;;;;;1.23;0.43;;;;;;;17.67;76.58;102290.50;5028556;28;20127;-77
2022/07/15 06:54:37;;;;;;;0.43;0.43;;;;;;;17.85;75.77;102288.66;5028913;28;20090;-77
2022/07/15 06:57:03;;;;;;;0.30;0.30;;;;;;;18.02;75.68;102301.13;5028834;28;20025;-75
2022/07/15 06:59:29;;;;;;;0.88;0.40;;;;;;;18.20;74.89;102293.97;5028594;28;20028;-76
2022/07/15 07:01:55;;;;;;;0.52;0.40;;;;;;;18.30;73.52;102300.53;5022845;28;20033;-77
2022/07/15 07:04:22;;;;;;;2.05;0.50;;;;;;;18.52;73.86;102301.16;5026880;28;21798;-78
2022/07/15 07:06:47;;;;;;;0.35;0.32;;;;;;;18.72;73.03;102302.69;5027039;28;20029;-76
2022/07/15 07:09:13;;;;;;;2.08;0.70;;;;;;;18.77;72.01;102300.63;5026802;28;20029;-76
2022/07/15 07:11:39;;;;;;;2.85;0.40;;;;;;;18.62;71.08;102301.50;5028064;28;20044;-79
2022/07/15 07:14:08;;;;;;;0.77;0.30;;;;;;;18.51;71.29;102307.47;5028427;28;20221;-76
2022/07/15 07:16:33;;;;;;;0.60;0.32;;;;;;;18.51;71.68;102313.69;5022497;28;20055;-78
2022/07/15 07:19:00;;;;;;;2.10;0.50;;;;;;;18.60;71.01;102306.94;5028034;28;20036;-75
2022/07/15 07:21:25;;;;;;;0.30;0.30;;;;;;;18.61;70.18;102299.78;5023884;28;20792;-76
2022/07/15 07:23:54;;;;;;;1.50;0.35;;;;;;;18.82;70.86;102303.03;5025406;28;20177;-78
2022/07/15 07:26:20;;;;;;;0.52;0.40;;;;;;;18.91;70.31;102301.66;5025458;28;20041;-77
2022/07/15 07:28:48;;;;;;;0.30;0.30;;;;;;;18.98;70.10;102308.38;5026546;28;20047;-78
2022/07/15 07:31:14;;;;;;;1.13;0.30;;;;;;;18.96;69.35;102305.78;5025403;28;20041;-75
2022/07/15 07:33:40;;;;;;;0.50;0.30;;;;;;;18.84;68.56;102302.00;5020650;28;20041;-77
2022/07/15 07:36:07;;;;;;;1.42;0.40;;;;;;;18.69;69.83;102303.72;5026365;28;20033;-78
2022/07/15 07:38:34;;;;;;;0.75;0.40;;;;;;;18.54;69.53;102308.16;5026724;28;20099;-76
2022/07/15 07:41:01;;;;;;;2.47;0.40;;;;;;;18.48;69.72;102300.47;5026378;28;20025;-77
2022/07/15 07:43:27;;;;;;;0.80;0.40;;;;;;;18.62;68.95;102294.31;5026087;28;20080;-76
2022/07/15 07:45:53;;;;;;;0.40;0.30;;;;;;;18.70;68.87;102291.19;5027193;28;20398;-78
2022/07/15 07:48:19;;;;;;;1.83;0.30;;;;;;;18.87;68.52;102295.59;5008084;28;20497;-76
2022/07/15 07:50:48;;;;;;;0.30;0.30;;;;;;;19.00;67.48;102291.25;5026589;28;20032;-76
2022/07/15 07:53:14;;;;;;;0.30;0.30;;;;;;;19.14;67.45;102297.66;5026459;28;20033;-76
2022/07/15 07:55:39;;;;;;;2.13;0.45;;;;;;;19.27;66.82;102290.59;5025465;28;20099;-77
2022/07/15 07:58:08;;;;;;;1.50;0.30;;;;;;;19.43;66.25;102286.13;5025719;28;20033;-77
2022/07/15 08:00:35;;;;;;;0.40;0.25;;;;;;;19.65;63.62;102280.28;5025316;28;20529;-75
2022/07/15 08:03:01;;;;;;;1.58;0.35;;;;;;;19.89;65.31;102285.97;5025971;28;20033;-77
2022/07/15 08:05:27;;;;;;;0.80;0.30;;;;;;;19.87;65.00;102290.56;5024219;28;20124;-72
2022/07/15 08:08:17;;;;;;;0.30;0.30;;;;;;;19.73;63.71;102293.25;4999364;28;20438;-73
2022/07/15 08:10:48;;;;;;;0.63;0.25;;;;;;;19.62;64.09;102292.09;5025707;28;20161;-72
2022/07/15 08:13:16;;;;;;;0.52;0.30;;;;;;;19.65;64.91;102296.41;5022521;28;20637;-76
2022/07/15 08:15:41;;;;;;;0.38;0.30;;;;;;;19.82;64.64;102281.94;5022142;28;20033;-77
2022/07/15 08:18:07;;;;;;;0.95;0.30;;;;;;;19.87;63.85;102290.56;5025189;28;20028;-76
2022/07/15 08:20:33;;;;;;;0.52;0.30;;;;;;;19.69;60.91;102292.59;4932697;28;2643820;-76
2022/07/15 08:22:59;;;;;;;0.43;0.30;;;;;;;19.44;63.00;102295.91;5024650;28;20045;-76
2022/07/15 08:25:29;;;;;;;0.45;0.30;;;;;;;19.24;63.16;102298.81;5018036;28;20129;-76
2022/07/15 08:27:56;;;;;;;0.38;0.30;;;;;;;19.19;64.46;102294.69;5025317;28;20048;-76
2022/07/15 08:30:22;;;;;;;0.95;0.40;;;;;;;19.21;64.26;102298.13;5004953;28;20068;-77
2022/07/15 08:32:48;;;;;;;0.30;0.30;;;;;;;19.24;64.05;102300.66;5026849;28;20484;-77
2022/07/15 08:35:14;;;;;;;0.65;0.30;;;;;;;19.41;64.78;102303.19;5024427;28;20091;-75
2022/07/15 08:37:40;;;;;;;0.77;0.28;;;;;;;19.63;63.70;102301.91;5035534;28;20111;-76
2022/07/15 08:40:10;;;;;;;0.43;0.30;;;;;;;19.79;63.54;102306.31;5020360;28;20762;-76
2022/07/15 08:42:43;;;;;;;0.73;0.32;;;;;;;19.98;63.48;102295.31;5025273;28;20497;-75
2022/07/15 08:45:10;;;;;;;0.40;0.20;;;;;;;20.17;62.31;102303.09;5026357;28;20033;-75
2022/07/15 08:47:37;;;;;;;0.25;0.25;;;;;;;20.30;61.13;102304.97;5026939;28;20094;-75
2022/07/15 08:50:04;;;;;;;1.60;0.40;;;;;;;20.39;60.85;102296.34;5026006;28;20045;-75
2022/07/15 08:52:33;;;;;;;1.05;0.40;;;;;;;20.58;60.44;102295.13;5003532;28;20037;-75
2022/07/15 08:54:59;;;;;;;0.47;0.30;;;;;;;20.63;61.18;102295.69;5026519;28;20033;-75
2022/07/15 08:57:27;;;;;;;0.30;0.30;;;;;;;20.70;60.98;102290.78;5026162;28;20098;-76
2022/07/15 08:59:53;;;;;;;0.20;0.20;;;;;;;20.75;61.45;102294.00;5020229;28;20091;-76
2022/07/15 09:02:19;;;;;;;0.30;0.30;;;;;;;20.71;60.80;102285.28;5003866;28;20550;-76
2022/07/15 09:05:23;;;;;;;0.50;0.50;;;;;;;20.44;57.84;102298.72;5019887;28;20044;-76
2022/07/15 09:07:53;;;;;;;0.70;0.43;;;;;;;20.28;61.04;102286.28;5021449;28;20040;-77
2022/07/15 09:10:20;;;;;;;0.95;0.50;;;;;;;20.29;60.77;102290.69;5024747;28;20142;-77
2022/07/15 09:12:49;;;;;;;0.25;0.25;;;;;;;20.17;61.05;102292.34;5025630;28;20068;-78
2022/07/15 09:15:36;;;;;;;0.28;0.20;;;;;;;19.97;58.54;102285.53;5004496;28;20033;-79
2022/07/15 09:18:17;;;;;;;0.60;0.20;;;;;;;19.91;58.03;102283.19;4987458;28;20096;-77
2022/07/15 09:20:44;;;;;;;0.60;0.32;;;;;;;19.97;60.40;102287.34;5036345;28;20060;-78
2022/07/15 09:23:12;;;;;;;0.57;0.20;;;;;;;20.05;60.54;102279.69;5023770;28;20094;-75
2022/07/15 09:25:39;;;;;;;0.30;0.30;;;;;;;20.19;60.30;102276.09;5024075;28;20069;-73
2022/07/15 09:28:06;;;;;;;0.25;0.25;;;;;;;20.25;60.32;102280.22;5025703;28;20040;-78
2022/07/15 09:33:43;;;;;;;0.75;0.25;;;;;;;20.37;60.07;102276.72;5019418;28;20088;-74
2022/07/15 09:36:15;;;;;;;0.30;0.30;;;;;;;20.21;59.00;102285.78;5025974;28;20020;-74
2022/07/15 09:38:53;;;;;;;1.10;0.30;;;;;;;20.04;58.77;102283.31;5023997;28;20043;-74
2022/07/15 09:41:28;;;;;;;0.63;0.30;;;;;;;20.21;59.16;102274.19;5023641;28;20037;-74
2022/07/15 09:44:01;;;;;;;0.50;0.50;;;;;;;20.48;59.25;102281.41;5025116;28;20131;-75
2022/07/15 09:46:49;;;;;;;1.13;0.70;;;;;;;20.60;58.41;102279.75;5019683;28;20512;-75
2022/07/15 09:49:24;;;;;;;1.02;0.40;;;;;;;20.30;57.72;102275.41;5023386;28;20571;-74
2022/07/15 09:52:02;;;;;;;0.57;0.50;;;;;;;20.18;58.20;102282.44;5025532;28;20142;-74
2022/07/15 09:54:33;;;;;;;0.30;0.30;;;;;;;20.14;57.66;102265.63;5025684;28;20037;-74
2022/07/15 09:57:00;;;;;;;0.28;0.22;;;;;;;20.17;58.68;102270.84;5025266;28;20034;-75
2022/07/15 09:59:27;;;;;;;0.20;0.20;;;;;;;20.32;57.86;102273.50;5024977;28;20380;-75
2022/07/15 10:01:53;;;;;;;0.43;0.40;;;;;;;20.49;58.21;102273.25;5017940;28;20388;-74
2022/07/15 10:04:21;;;;;;;0.90;0.30;;;;;;;20.63;57.64;102268.78;5018692;28;20068;-75
2022/07/15 10:06:49;;;;;;;0.98;0.40;;;;;;;20.70;57.08;102259.34;5025005;28;20036;-74
2022/07/15 10:09:14;;;;;;;1.25;0.38;;;;;;;20.66;56.92;102262.34;5001729;28;20037;-74
2022/07/15 10:11:47;;;;;;;1.45;1.17;;;;;;;20.54;57.22;102264.03;5024466;28;21138;-74
2022/07/15 10:14:32;;;;;;;;;;;;;;;20.48;54.66;102259.88;5019212;28;20043;-74
2022/07/15 10:17:08;;;;;;;0.52;0.40;;;;;;;20.47;57.05;102258.16;5023400;28;20010;-74
2022/07/15 10:19:45;;;;;;;0.20;0.20;;;;;;;20.57;56.44;102266.50;4986373;28;20126;-74
2022/07/15 10:22:32;;;;;;;0.30;0.28;;;;;;;20.65;56.97;102253.44;5024447;28;20041;-75
2022/07/15 10:25:16;;;;;;;0.30;0.17;;;;;;;20.75;55.70;102256.34;5021204;28;20029;-76
2022/07/15 10:28:24;;;;;;;0.70;0.47;;;;;;;20.75;55.12;102250.97;5024329;28;20038;-74
2022/07/15 10:31:28;;;;;;;0.30;0.20;;;;;;;20.68;55.83;102257.72;5004214;28;20075;-75
2022/07/15 10:34:03;;;;;;;0.47;0.40;;;;;;;20.60;56.74;102253.72;5023656;28;20523;-74
2022/07/15 10:36:54;;;;;;;0.20;0.20;;;;;;;20.46;56.62;102260.00;5024935;28;20119;-74
2022/07/15 10:39:21;;;;;;;0.95;0.65;;;;;;;20.48;58.19;102258.06;5018586;28;20171;-76
2022/07/15 10:41:47;;;;;;;0.30;0.30;;;;;;;20.59;57.63;102267.28;5023886;28;20506;-74
2022/07/15 10:44:13;;;;;;;0.30;0.30;;;;;;;20.60;57.40;102259.09;5023833;28;20127;-74
2022/07/15 10:46:38;;;;;;;0.85;0.40;;;;;;;20.62;57.29;102256.31;5012259;28;20049;-75
2022/07/15 10:49:04;;;;;;;0.30;0.30;;;;;;;20.54;57.31;102250.56;5017660;28;20054;-76
2022/07/15 10:51:35;;;;;;;0.38;0.30;;;;;;;20.31;57.44;102258.28;5022191;28;20033;-75
2022/07/15 10:54:02;;;;;;;1.73;0.45;;;;;;;20.11;57.66;102263.16;5024442;28;20029;-74
2022/07/15 10:56:34;;;;;;;0.80;0.50;;;;;;;19.92;58.10;102258.91;5022001;28;20127;-75
2022/07/15 10:59:19;;;;;;;0.57;0.40;;;;;;;19.85;58.40;102262.06;5023121;28;20048;-74
2022/07/15 11:01:48;;;;;;;0.98;0.57;;;;;;;19.75;59.02;102257.28;5024188;28;20438;-76
2022/07/15 11:04:24;;;;;;;0.50;0.32;;;;;;;19.58;58.91;102255.66;5024506;28;20033;-76
2022/07/15 11:07:11;;;;;;;0.45;0.45;;;;;;;19.50;59.50;102252.56;5009663;28;20025;-74
2022/07/15 11:09:44;;;;;;;0.40;0.40;;;;;;;19.48;59.75;102246.41;5027419;28;20044;-76
2022/07/15 11:12:11;;;;;;;0.60;0.30;;;;;;;19.45;60.19;102252.84;5028554;28;20305;-74
2022/07/15 11:14:53;;;;;;;0.50;0.50;;;;;;;19.44;59.68;102245.75;5026528;28;20068;-75
2022/07/15 11:17:29;;;;;;;1.70;0.93;;;;;;;19.45;60.23;102249.31;5026160;28;20064;-75
2022/07/15 11:20:01;;;;;;;0.73;0.60;;;;;;;19.50;60.36;102248.06;5026072;28;20387;-75
2022/07/15 11:22:28;;;;;;;1.50;0.50;;;;;;;19.65;60.46;102238.19;5026497;28;20037;-74
2022/07/15 11:24:55;;;;;;;0.98;0.40;;;;;;;19.81;60.13;102242.59;5026836;28;20511;-74
2022/07/15 11:27:22;;;;;;;0.45;0.45;;;;;;;19.77;60.22;102239.25;5000346;28;20032;-75
2022/07/15 11:29:51;;;;;;;1.02;0.40;;;;;;;19.65;60.05;102243.56;5024676;28;20068;-75
2022/07/15 11:32:20;;;;;;;1.00;0.50;;;;;;;19.59;60.45;102246.63;4988728;28;20040;-75
2022/07/15 11:34:51;;;;;;;0.90;0.40;;;;;;;19.48;60.18;102238.34;5021287;28;20056;-75
2022/07/15 11:37:20;;;;;;;0.45;0.40;;;;;;;19.37;60.58;102237.22;5024674;28;20036;-76